Time;durP1;ratioP1;P1;durP2;ratioP2;P2;SDS_P1;SDS_P2;PMS_P1;PMS_P2;Temp;Humidity;BMP_temperature;BMP_pressure;BME280_temperature;BME280_humidity;BME280_pressure;Samples;Min_cycle;Max_cycle;Signal;HPM_P1;HPM_P2
2021/04/10 00:00:11;;;;;;;9.00;2.25;;;5.30;99.90;;;;;;5085334;28;20040;-71
2021/04/10 00:02:38;;;;;;;14.77;2.67;;;5.40;99.90;;;;;;5084810;28;20055;-71
2021/04/10 00:05:07;;;;;;;11.25;2.40;;;5.40;99.90;;;;;;5094165;28;20055;-70
2021/04/10 00:07:33;;;;;;;12.38;2.53;;;5.30;99.90;;;;;;5091744;28;20044;-71
2021/04/10 00:09:59;;;;;;;15.32;2.50;;;5.30;99.90;;;;;;5126096;27;20032;-71
2021/04/10 00:12:24;;;;;;;14.93;2.20;;;5.30;99.90;;;;;;5089289;28;20100;-70
2021/04/10 00:14:50;;;;;;;11.70;2.83;;;5.30;99.90;;;;;;5087019;28;20028;-71
2021/04/10 00:17:17;;;;;;;13.20;2.33;;;5.30;99.90;;;;;;5084150;28;20083;-72
2021/04/10 00:19:43;;;;;;;11.27;2.40;;;5.30;99.90;;;;;;5088603;28;20059;-71
2021/04/10 00:22:09;;;;;;;12.13;2.05;;;5.30;99.90;;;;;;5089722;28;20381;-72
2021/04/10 00:24:34;;;;;;;10.55;2.13;;;5.40;99.90;;;;;;5088313;28;20122;-71
2021/04/10 00:27:00;;;;;;;14.00;2.25;;;5.40;99.90;;;;;;5097537;28;20048;-71
2021/04/10 00:29:26;;;;;;;9.52;2.33;;;5.40;99.90;;;;;;5097388;28;20127;-72
2021/04/10 00:31:52;;;;;;;8.93;2.17;;;5.40;99.90;;;;;;5095317;28;20066;-72
2021/04/10 00:34:17;;;;;;;9.52;2.50;;;5.50;99.90;;;;;;5089380;28;20044;-71
2021/04/10 00:36:43;;;;;;;9.93;2.15;;;5.50;99.90;;;;;;5091041;28;20036;-70
2021/04/10 00:39:09;;;;;;;10.00;2.38;;;5.50;99.90;;;;;;5088746;28;20067;-71
2021/04/10 00:41:35;;;;;;;15.00;2.60;;;5.50;99.90;;;;;;5108283;28;20044;-71
2021/04/10 00:44:01;;;;;;;10.30;2.03;;;5.60;99.90;;;;;;5092756;28;20117;-71
2021/04/10 00:46:26;;;;;;;11.00;2.33;;;5.60;99.90;;;;;;5096423;28;20510;-71
2021/04/10 00:48:52;;;;;;;7.70;2.08;;;5.60;99.90;;;;;;5095367;28;20092;-71
2021/04/10 00:51:18;;;;;;;12.93;2.53;;;5.70;99.90;;;;;;5094013;28;20047;-68
2021/04/10 00:53:44;;;;;;;9.20;2.00;;;5.50;99.90;;;;;;5090629;28;21035;-71
2021/04/10 00:56:11;;;;;;;10.13;2.83;;;5.50;99.90;;;;;;5096092;28;20158;-71
2021/04/10 00:58:37;;;;;;;13.55;2.50;;;5.50;99.90;;;;;;5096863;28;20448;-72
2021/04/10 01:01:04;;;;;;;13.13;2.70;;;5.50;99.90;;;;;;5096756;28;20028;-71
2021/04/10 01:03:31;;;;;;;9.82;2.60;;;5.50;99.90;;;;;;5096372;28;20044;-70
2021/04/10 01:05:57;;;;;;;11.25;2.20;;;5.40;99.90;;;;;;5095316;28;20040;-71
2021/04/10 01:08:23;;;;;;;14.07;2.42;;;5.40;99.90;;;;;;5096044;28;20137;-70
2021/04/10 01:10:50;;;;;;;12.07;2.65;;;5.40;99.90;;;;;;5093078;28;20489;-71
2021/04/10 01:13:40;;;;;;;11.73;2.58;;;5.80;99.90;;;;;;5094650;28;20039;-71
2021/04/10 01:16:38;;;;;;;12.20;2.45;;;5.40;99.90;;;;;;5092360;28;20507;-69
2021/04/10 01:19:35;;;;;;;11.20;2.88;;;5.40;99.90;;;;;;5094425;28;20050;-71
2021/04/10 01:22:25;;;;;;;14.98;2.53;;;5.40;99.90;;;;;;5096423;28;20103;-71
2021/04/10 01:25:01;;;;;;;9.90;2.17;;;5.30;99.90;;;;;;5090884;28;20040;-72
2021/04/10 01:27:33;;;;;;;10.32;3.15;;;5.30;99.90;;;;;;5093338;28;20044;-70
2021/04/10 01:30:19;;;;;;;9.10;2.20;;;5.30;99.90;;;;;;5094638;28;20186;-72
2021/04/10 01:32:50;;;;;;;12.60;2.67;;;5.30;99.90;;;;;;5091961;28;20054;-72
2021/04/10 01:35:18;;;;;;;13.25;3.13;;;5.10;99.90;;;;;;5089377;28;20162;-71
2021/04/10 01:38:00;;;;;;;12.23;2.72;;;5.10;99.90;;;;;;5092762;28;20052;-71
2021/04/10 01:40:29;;;;;;;18.08;4.55;;;5.20;99.90;;;;;;5090536;28;20039;-71
2021/04/10 01:42:56;;;;;;;15.20;3.70;;;5.10;99.90;;;;;;5089529;28;20040;-70
2021/04/10 01:45:22;;;;;;;13.27;2.78;;;5.10;99.90;;;;;;5087801;28;20130;-69
2021/04/10 01:47:51;;;;;;;10.27;3.03;;;5.10;99.90;;;;;;5090696;28;20644;-69
2021/04/10 01:50:19;;;;;;;7.85;2.63;;;5.10;99.90;;;;;;5091903;28;20036;-70
2021/04/10 01:52:49;;;;;;;11.05;2.75;;;5.10;99.90;;;;;;5092659;28;20040;-69
2021/04/10 01:55:15;;;;;;;13.43;2.58;;;5.20;99.90;;;;;;5090776;28;20066;-69
2021/04/10 01:57:42;;;;;;;8.73;2.17;;;5.30;99.90;;;;;;5091912;28;20493;-71
2021/04/10 02:00:08;;;;;;;11.25;3.00;;;5.20;99.90;;;;;;5088851;28;20076;-70
2021/04/10 02:02:38;;;;;;;11.15;2.22;;;5.20;99.90;;;;;;5092137;28;20075;-71
2021/04/10 02:05:07;;;;;;;8.88;2.17;;;5.20;99.90;;;;;;5090196;28;20739;-69
2021/04/10 02:07:33;;;;;;;10.23;2.42;;;5.20;99.90;;;;;;5092055;28;20048;-72
2021/04/10 02:10:03;;;;;;;10.77;1.83;;;5.20;99.90;;;;;;5093807;28;20040;-70
2021/04/10 02:12:30;;;;;;;12.00;2.03;;;5.20;99.90;;;;;;5094127;28;20041;-71
2021/04/10 02:15:03;;;;;;;9.57;1.92;;;5.20;99.90;;;;;;5092946;28;20040;-71
2021/04/10 02:17:29;;;;;;;8.70;1.95;;;5.20;99.90;;;;;;5091939;28;20290;-71
2021/04/10 02:19:56;;;;;;;10.73;2.13;;;5.20;99.90;;;;;;5092384;28;20044;-71
2021/04/10 02:22:23;;;;;;;11.77;1.70;;;5.10;99.90;;;;;;5095732;28;20054;-71
2021/04/10 02:24:49;;;;;;;16.52;2.22;;;5.10;99.90;;;;;;5093611;28;20050;-68
2021/04/10 02:27:15;;;;;;;14.68;2.53;;;5.10;99.90;;;;;;5095752;28;20226;-71
2021/04/10 02:29:44;;;;;;;7.00;1.65;;;5.00;99.90;;;;;;5092448;28;20521;-71
2021/04/10 02:32:36;;;;;;;9.38;1.58;;;5.00;99.90;;;;;;5094770;28;20048;-70
2021/04/10 02:35:12;;;;;;;5.97;1.30;;;5.00;99.90;;;;;;5075613;28;20050;-69
2021/04/10 02:37:39;;;;;;;9.73;1.40;;;5.00;99.90;;;;;;5092802;28;20044;-70
2021/04/10 02:40:06;;;;;;;8.85;1.20;;;5.00;99.90;;;;;;5091413;28;20122;-71
2021/04/10 02:42:34;;;;;;;8.57;1.98;;;5.00;99.90;;;;;;5094766;28;20039;-70
2021/04/10 02:45:04;;;;;;;8.30;1.67;;;5.00;99.90;;;;;;5091707;28;20040;-70
2021/04/10 02:47:33;;;;;;;14.27;1.90;;;4.90;99.90;;;;;;5095440;28;20043;-70
2021/04/10 02:50:03;;;;;;;10.80;1.80;;;4.90;99.90;;;;;;5092305;28;20036;-72
2021/04/10 02:52:34;;;;;;;10.70;1.70;;;4.90;99.90;;;;;;5096023;28;20043;-71
2021/04/10 02:55:03;;;;;;;9.18;2.13;;;4.90;99.90;;;;;;5091932;28;20040;-70
2021/04/10 02:57:30;;;;;;;9.63;1.27;;;5.00;99.90;;;;;;5094233;28;20172;-68
2021/04/10 03:00:03;;;;;;;6.50;1.48;;;5.40;99.90;;;;;;5095189;28;20047;-70
2021/04/10 03:02:30;;;;;;;6.97;1.52;;;5.00;99.90;;;;;;5095682;28;20064;-70
2021/04/10 03:04:56;;;;;;;12.35;1.70;;;5.00;99.90;;;;;;5076339;28;20048;-71
2021/04/10 03:07:22;;;;;;;9.15;1.30;;;5.00;99.90;;;;;;5094958;28;20040;-70
2021/04/10 03:09:49;;;;;;;7.50;1.60;;;5.00;99.90;;;;;;5093815;28;20096;-69
2021/04/10 03:12:16;;;;;;;13.73;1.67;;;5.00;99.90;;;;;;5092827;28;20044;-72
2021/04/10 03:14:44;;;;;;;9.23;1.90;;;5.00;99.90;;;;;;5090311;28;20044;-70
2021/04/10 03:17:17;;;;;;;12.93;2.00;;;5.00;99.90;;;;;;5109997;28;20040;-70
2021/04/10 03:19:44;;;;;;;8.30;1.35;;;5.00;99.90;;;;;;5090745;28;20067;-70
2021/04/10 03:22:11;;;;;;;10.30;1.55;;;5.00;99.90;;;;;;5094386;28;20046;-71
2021/04/10 03:24:37;;;;;;;9.25;1.75;;;4.90;99.90;;;;;;5091008;28;20036;-71
2021/04/10 03:27:04;;;;;;;13.02;2.53;;;4.90;99.90;;;;;;5095487;28;20100;-71
2021/04/10 03:29:31;;;;;;;10.13;1.33;;;4.90;99.90;;;;;;5093097;28;20042;-70
2021/04/10 03:31:57;;;;;;;14.38;1.85;;;4.90;99.90;;;;;;5093004;28;20036;-71
2021/04/10 03:34:24;;;;;;;11.70;2.00;;;5.00;99.90;;;;;;5092206;28;20039;-71
2021/04/10 03:36:51;;;;;;;10.55;1.77;;;5.00;99.90;;;;;;5095596;28;20070;-71
2021/04/10 03:39:17;;;;;;;6.90;1.70;;;4.90;99.90;;;;;;5095612;28;20047;-69
2021/04/10 03:41:43;;;;;;;9.68;1.65;;;5.00;99.90;;;;;;5093301;28;20036;-70
2021/04/10 03:44:09;;;;;;;11.00;1.52;;;5.00;99.90;;;;;;5118922;28;21305;-72
2021/04/10 03:46:36;;;;;;;8.43;1.58;;;5.00;99.90;;;;;;5092413;28;20043;-70
2021/04/10 03:49:05;;;;;;;10.77;1.83;;;5.10;99.90;;;;;;5092391;28;20111;-70
2021/04/10 03:51:32;;;;;;;9.45;2.15;;;5.10;99.90;;;;;;5089476;28;20039;-71
2021/04/10 03:53:58;;;;;;;10.75;1.45;;;5.20;99.90;;;;;;5091044;28;20048;-70
2021/04/10 03:56:24;;;;;;;9.15;2.22;;;5.10;99.90;;;;;;5093179;28;20115;-70
2021/04/10 03:58:50;;;;;;;10.02;2.00;;;5.10;99.90;;;;;;5093838;28;20067;-70
2021/04/10 04:01:16;;;;;;;11.95;1.95;;;5.10;99.90;;;;;;5093849;28;20055;-68
2021/04/10 04:03:42;;;;;;;12.27;1.77;;;5.00;99.90;;;;;;5090797;28;20521;-71
2021/04/10 04:06:08;;;;;;;8.77;1.80;;;5.00;99.90;;;;;;5090399;28;20044;-70
2021/04/10 04:08:34;;;;;;;9.95;1.77;;;4.90;99.90;;;;;;5092286;28;20044;-70
2021/04/10 04:11:00;;;;;;;11.98;1.55;;;4.90;99.90;;;;;;5092183;28;20126;-72
2021/04/10 04:13:25;;;;;;;7.65;1.42;;;4.90;99.90;;;;;;5090157;28;20444;-70
2021/04/10 04:15:51;;;;;;;9.70;1.35;;;4.80;99.90;;;;;;5085262;28;20079;-71
2021/04/10 04:18:17;;;;;;;11.88;1.52;;;4.80;99.90;;;;;;5092712;28;20059;-69
2021/04/10 04:20:43;;;;;;;11.48;2.17;;;4.80;99.90;;;;;;5092881;28;20099;-72
2021/04/10 04:23:09;;;;;;;7.15;1.40;;;4.90;99.90;;;;;;5092477;28;20055;-71
2021/04/10 04:25:36;;;;;;;11.13;1.92;;;4.90;99.90;;;;;;5089729;28;20036;-68
2021/04/10 04:28:02;;;;;;;14.77;2.30;;;4.90;99.90;;;;;;5090555;28;20079;-70
2021/04/10 04:30:28;;;;;;;15.68;2.38;;;4.80;99.90;;;;;;5097034;28;20394;-70
2021/04/10 04:32:53;;;;;;;11.38;1.73;;;4.80;99.90;;;;;;5095781;28;20047;-70
2021/04/10 04:35:19;;;;;;;16.35;1.75;;;4.90;99.90;;;;;;5093354;28;20620;-68
2021/04/10 04:37:47;;;;;;;11.02;2.00;;;4.80;99.90;;;;;;5097102;28;20036;-70
2021/04/10 04:40:14;;;;;;;12.00;1.40;;;4.80;99.90;;;;;;5096214;28;20071;-71
2021/04/10 04:42:40;;;;;;;11.10;2.03;;;4.90;99.90;;;;;;5096928;28;20055;-70
2021/04/10 04:45:07;;;;;;;6.03;1.63;;;4.90;99.90;;;;;;5093179;28;20060;-71
2021/04/10 04:47:33;;;;;;;9.32;2.30;;;4.80;99.90;;;;;;5097734;28;20134;-70
2021/04/10 04:49:59;;;;;;;15.38;1.90;;;4.80;99.90;;;;;;5096856;28;20055;-69
2021/04/10 04:52:32;;;;;;;8.50;1.50;;;4.80;99.90;;;;;;5095459;28;20044;-71
2021/04/10 04:54:58;;;;;;;7.68;1.20;;;4.80;99.90;;;;;;5092186;28;20047;-71
2021/04/10 04:57:24;;;;;;;7.88;1.58;;;4.90;99.90;;;;;;5125180;27;20069;-69
2021/04/10 04:59:50;;;;;;;12.98;2.03;;;4.90;99.90;;;;;;5096397;28;20044;-70
2021/04/10 05:02:16;;;;;;;9.73;1.83;;;4.80;99.90;;;;;;5094338;28;20040;-71
2021/04/10 05:04:42;;;;;;;9.45;1.70;;;4.70;99.90;;;;;;5087808;28;20490;-70
2021/04/10 05:07:08;;;;;;;14.48;2.53;;;4.70;99.90;;;;;;5094860;28;20051;-70
2021/04/10 05:09:34;;;;;;;11.82;2.10;;;4.70;99.90;;;;;;5092830;28;20036;-71
2021/04/10 05:12:00;;;;;;;8.45;1.60;;;4.70;99.90;;;;;;5095388;28;20450;-70
2021/04/10 05:14:26;;;;;;;8.27;1.60;;;4.70;99.90;;;;;;5092385;28;20127;-70
2021/04/10 05:16:51;;;;;;;9.93;1.70;;;4.70;99.90;;;;;;5092416;28;20121;-70
2021/04/10 05:19:17;;;;;;;9.52;2.00;;;4.70;99.90;;;;;;5073634;28;20752;-70
2021/04/10 05:21:43;;;;;;;12.32;2.28;;;4.70;99.90;;;;;;5091455;28;20029;-71
2021/04/10 05:24:09;;;;;;;12.75;1.98;;;4.70;99.90;;;;;;5082926;28;20055;-71
2021/04/10 05:26:35;;;;;;;10.82;2.17;;;4.70;99.90;;;;;;5087110;28;20043;-70
2021/04/10 05:29:02;;;;;;;7.65;2.35;;;4.80;99.90;;;;;;5087192;28;20131;-71
2021/04/10 05:31:31;;;;;;;14.68;2.10;;;4.80;99.90;;;;;;5084261;28;20036;-71
2021/04/10 05:33:57;;;;;;;11.00;2.03;;;4.80;99.90;;;;;;5081706;28;20047;-71
2021/04/10 05:36:23;;;;;;;15.68;2.47;;;4.70;99.90;;;;;;5084581;28;20039;-70
2021/04/10 05:38:48;;;;;;;14.80;2.75;;;4.80;99.90;;;;;;5082500;28;20048;-70
2021/04/10 05:41:15;;;;;;;9.80;2.63;;;4.80;99.90;;;;;;5086161;28;20513;-70
2021/04/10 05:43:40;;;;;;;9.82;1.95;;;4.80;99.90;;;;;;5082672;28;20047;-71
2021/04/10 05:46:07;;;;;;;12.00;2.58;;;4.80;99.90;;;;;;5080877;28;20040;-71
2021/04/10 05:48:33;;;;;;;10.00;2.38;;;4.80;99.90;;;;;;5082879;28;20070;-70
2021/04/10 05:50:59;;;;;;;6.38;1.90;;;4.80;99.90;;;;;;5081785;28;20397;-71
2021/04/10 05:53:28;;;;;;;16.60;3.78;;;4.80;99.90;;;;;;5090667;28;20043;-71
2021/04/10 05:55:54;;;;;;;12.10;3.03;;;4.90;99.90;;;;;;5095291;28;20482;-71
2021/04/10 05:58:20;;;;;;;11.00;2.58;;;4.80;99.90;;;;;;5091955;28;20119;-71
2021/04/10 06:00:47;;;;;;;12.57;3.03;;;4.90;99.90;;;;;;5086429;28;20085;-71
2021/04/10 06:03:14;;;;;;;14.40;4.20;;;4.90;99.90;;;;;;5090217;28;20088;-71
2021/04/10 06:05:44;;;;;;;14.60;2.58;;;4.90;99.90;;;;;;5085444;28;20079;-71
2021/04/10 06:08:10;;;;;;;8.43;2.75;;;4.90;99.90;;;;;;5085770;28;20039;-71
2021/04/10 06:10:35;;;;;;;11.45;2.58;;;4.90;99.90;;;;;;5087551;28;20470;-71
2021/04/10 06:13:01;;;;;;;7.00;2.60;;;5.00;99.90;;;;;;5086629;28;20511;-71
2021/04/10 06:15:27;;;;;;;14.55;2.80;;;5.00;99.90;;;;;;5081120;28;20114;-72
2021/04/10 06:17:53;;;;;;;17.70;3.53;;;5.10;99.90;;;;;;5085558;28;20036;-72
2021/04/10 06:20:20;;;;;;;10.98;2.70;;;5.10;99.90;;;;;;5090728;28;20107;-71
2021/04/10 06:22:47;;;;;;;10.60;2.58;;;5.10;99.90;;;;;;5089404;28;20044;-72
2021/04/10 06:25:13;;;;;;;9.45;2.13;;;5.00;99.90;;;;;;5084199;28;20055;-72
2021/04/10 06:27:39;;;;;;;11.15;2.63;;;5.10;99.90;;;;;;5089737;28;20514;-71
2021/04/10 06:30:06;;;;;;;11.80;2.28;;;5.20;99.90;;;;;;5086684;28;20089;-71
2021/04/10 06:32:32;;;;;;;11.70;2.55;;;5.20;99.90;;;;;;5085852;28;20114;-71
2021/04/10 06:34:58;;;;;;;10.70;2.17;;;5.20;99.90;;;;;;5085383;28;20116;-71
2021/04/10 06:37:24;;;;;;;14.43;2.10;;;5.10;99.90;;;;;;5087355;28;20044;-72
2021/04/10 06:39:50;;;;;;;7.90;1.60;;;5.20;99.90;;;;;;5087260;28;20044;-72
2021/04/10 06:42:16;;;;;;;11.52;2.70;;;5.30;99.90;;;;;;5087551;28;20040;-71
2021/04/10 06:44:42;;;;;;;7.93;1.30;;;5.20;99.90;;;;;;5084745;28;20086;-72
2021/04/10 06:47:08;;;;;;;11.73;1.85;;;5.30;99.90;;;;;;5088236;28;20983;-71
2021/04/10 06:49:34;;;;;;;12.98;1.85;;;5.20;99.80;;;;;;5088046;28;20051;-72
2021/04/10 06:52:01;;;;;;;11.25;2.40;;;5.30;99.90;;;;;;5087484;28;20047;-72
2021/04/10 06:54:33;;;;;;;11.68;1.40;;;5.40;99.80;;;;;;5084739;28;20493;-72
2021/04/10 06:57:17;;;;;;;16.45;2.75;;;5.40;98.90;;;;;;5087707;28;20397;-72
2021/04/10 06:59:55;;;;;;;16.02;2.25;;;5.30;98.50;;;;;;5085082;28;20040;-72
2021/04/10 07:02:22;;;;;;;11.85;1.90;;;5.40;99.10;;;;;;5086473;28;20044;-71
2021/04/10 07:04:48;;;;;;;16.88;1.80;;;5.30;97.60;;;;;;5085228;28;20044;-72
2021/04/10 07:07:14;;;;;;;8.52;1.33;;;6.10;98.60;;;;;;5084978;28;20052;-72
2021/04/10 07:09:40;;;;;;;10.48;1.55;;;5.50;99.00;;;;;;5089007;28;20036;-72
2021/04/10 07:12:08;;;;;;;9.80;1.13;;;5.50;97.70;;;;;;5088771;28;20051;-71
2021/04/10 07:14:34;;;;;;;10.63;1.70;;;5.50;97.20;;;;;;5086209;28;20051;-71
2021/04/10 07:17:00;;;;;;;12.05;1.35;;;5.60;97.40;;;;;;5083893;28;20044;-72
2021/04/10 07:19:28;;;;;;;11.35;1.45;;;5.50;96.90;;;;;;5087554;28;20078;-72
2021/04/10 07:22:08;;;;;;;11.85;1.48;;;5.70;96.60;;;;;;5085094;28;20062;-72
2021/04/10 07:24:42;;;;;;;9.50;1.13;;;5.90;96.80;;;;;;5084764;28;20047;-72
2021/04/10 07:27:13;;;;;;;7.82;2.17;;;6.00;96.40;;;;;;5087754;28;20052;-71
2021/04/10 07:29:42;;;;;;;13.52;2.00;;;6.00;94.30;;;;;;5071655;28;20044;-72
2021/04/10 07:32:28;;;;;;;8.13;1.35;;;6.00;94.70;;;;;;5080926;28;20031;-71
2021/04/10 07:34:56;;;;;;;9.10;1.20;;;5.90;94.60;;;;;;5084157;28;20126;-71
2021/04/10 07:37:38;;;;;;;8.13;0.93;;;6.00;94.00;;;;;;5083104;28;20055;-71
2021/04/10 07:40:06;;;;;;;15.00;1.90;;;6.10;94.30;;;;;;5085034;28;20047;-70
2021/04/10 07:42:36;;;;;;;8.93;1.52;;;6.10;93.90;;;;;;5078717;28;20033;-71
2021/04/10 07:45:03;;;;;;;10.27;1.33;;;6.00;93.80;;;;;;5066830;28;20051;-71
2021/04/10 07:47:36;;;;;;;7.18;1.38;;;6.20;93.40;;;;;;5070727;28;20425;-71
2021/04/10 07:50:21;;;;;;;10.23;1.80;;;6.20;94.00;;;;;;5069687;28;20032;-71
2021/04/10 07:52:47;;;;;;;12.27;1.20;;;6.10;93.00;;;;;;5070689;28;20133;-71
2021/04/10 07:55:36;;;;;;;6.78;1.00;;;6.10;93.70;;;;;;5079540;28;20035;-72
2021/04/10 07:58:21;;;;;;;15.00;1.27;;;6.20;94.60;;;;;;5085312;28;20044;-71
2021/04/10 08:00:47;;;;;;;14.80;1.52;;;6.10;93.40;;;;;;5082763;28;20085;-71
2021/04/10 08:03:32;;;;;;;8.95;1.92;;;6.20;93.50;;;;;;5083713;28;20040;-71
2021/04/10 08:06:04;;;;;;;11.38;1.50;;;6.30;93.60;;;;;;5083837;28;20058;-71
2021/04/10 08:08:32;;;;;;;11.15;1.48;;;6.40;93.60;;;;;;5085129;28;20040;-69
2021/04/10 08:11:02;;;;;;;14.35;1.50;;;6.60;93.10;;;;;;5072795;28;20467;-69
2021/04/10 08:13:29;;;;;;;10.00;1.40;;;6.80;94.00;;;;;;5070958;28;20055;-69
2021/04/10 08:16:15;;;;;;;9.20;1.10;;;7.10;93.90;;;;;;5068493;28;20110;-69
2021/04/10 08:18:50;;;;;;;8.95;1.42;;;6.80;91.50;;;;;;5071483;28;20127;-69
2021/04/10 08:21:38;;;;;;;15.10;3.27;;;6.90;92.00;;;;;;5092176;28;20523;-69
2021/04/10 08:24:25;;;;;;;11.48;1.50;;;6.90;91.70;;;;;;5084493;28;20047;-68
2021/04/10 08:26:56;;;;;;;16.80;1.30;;;6.90;92.00;;;;;;5087020;28;20060;-69
2021/04/10 08:29:23;;;;;;;10.82;1.08;;;7.00;93.60;;;;;;5090499;28;20379;-69
2021/04/10 08:31:50;;;;;;;12.10;1.25;;;7.00;93.20;;;;;;5086422;28;20117;-69
2021/04/10 08:34:16;;;;;;;8.32;1.10;;;7.00;93.20;;;;;;5086154;28;20044;-68
2021/04/10 08:36:48;;;;;;;9.65;1.75;;;6.90;93.30;;;;;;5083776;28;20046;-69
2021/04/10 08:39:17;;;;;;;11.20;1.50;;;6.90;93.10;;;;;;5085684;28;20426;-69
2021/04/10 08:41:43;;;;;;;12.70;2.42;;;7.00;93.30;;;;;;5090879;28;20122;-69
2021/04/10 08:44:12;;;;;;;7.30;1.80;;;6.90;91.90;;;;;;5087406;28;20547;-70
2021/04/10 08:46:43;;;;;;;10.40;2.00;;;6.80;92.20;;;;;;5089560;28;20040;-69
2021/04/10 08:49:12;;;;;;;9.80;2.38;;;6.80;92.00;;;;;;5088102;28;20042;-69
2021/04/10 08:51:39;;;;;;;7.10;1.35;;;6.80;91.90;;;;;;5086345;28;21932;-69
2021/04/10 08:54:11;;;;;;;12.93;2.08;;;6.90;90.90;;;;;;5087667;28;20040;-69
2021/04/10 08:56:38;;;;;;;12.05;2.95;;;7.00;92.00;;;;;;5091271;28;20043;-69
2021/04/10 08:59:22;;;;;;;9.30;1.63;;;7.00;92.50;;;;;;5090782;28;20047;-69
2021/04/10 09:02:10;;;;;;;7.65;1.75;;;7.20;92.00;;;;;;5089150;28;20082;-69
2021/04/10 09:04:59;;;;;;;7.55;1.27;;;7.20;91.10;;;;;;5083456;28;20055;-69
2021/04/10 09:07:43;;;;;;;11.10;1.77;;;7.30;91.50;;;;;;5081339;28;20073;-69
2021/04/10 09:10:24;;;;;;;4.63;1.38;;;7.30;91.70;;;;;;5090187;28;20040;-69
2021/04/10 09:13:10;;;;;;;14.32;1.35;;;7.40;91.20;;;;;;5085570;28;20048;-69
2021/04/10 09:15:37;;;;;;;7.18;1.05;;;7.50;90.70;;;;;;5073686;28;20417;-69
2021/04/10 09:18:07;;;;;;;10.15;1.13;;;7.40;90.90;;;;;;5084901;28;20051;-69
2021/04/10 09:20:45;;;;;;;15.73;2.08;;;7.60;89.40;;;;;;5089967;28;20402;-69
2021/04/10 09:23:30;;;;;;;13.30;1.40;;;7.50;90.20;;;;;;5090079;28;20040;-69
2021/04/10 09:26:08;;;;;;;6.78;1.13;;;7.70;90.40;;;;;;5086061;28;20043;-69
2021/04/10 09:28:35;;;;;;;7.82;1.00;;;7.70;89.00;;;;;;5089854;28;20097;-69
2021/04/10 09:31:02;;;;;;;6.82;1.02;;;8.10;91.10;;;;;;5087289;28;20040;-69
2021/04/10 09:33:31;;;;;;;8.77;1.38;;;8.10;89.40;;;;;;5087372;28;20044;-69
2021/04/10 09:35:57;;;;;;;10.20;1.15;;;7.90;89.00;;;;;;5085662;28;20040;-69
2021/04/10 09:38:45;;;;;;;4.93;1.30;;;7.80;90.50;;;;;;5088612;28;20554;-69
2021/04/10 09:41:11;;;;;;;6.30;0.95;;;7.80;90.00;;;;;;5088381;28;20036;-69
2021/04/10 09:44:05;;;;;;;12.23;1.35;;;7.80;89.10;;;;;;5089674;28;20046;-69
2021/04/10 09:46:32;;;;;;;7.70;1.10;;;7.80;90.00;;;;;;5086599;28;20090;-69
2021/04/10 09:48:58;;;;;;;10.57;1.15;;;7.80;91.00;;;;;;5087743;28;20393;-69
2021/04/10 09:51:25;;;;;;;6.85;1.00;;;7.80;89.10;;;;;;5087297;28;20055;-69
2021/04/10 09:53:51;;;;;;;19.20;1.67;;;7.70;89.40;;;;;;5086409;28;20055;-69
2021/04/10 09:56:18;;;;;;;6.05;1.15;;;7.70;88.40;;;;;;5086368;28;20048;-69
2021/04/10 09:58:49;;;;;;;5.95;0.90;;;7.70;87.70;;;;;;5086721;28;20044;-69
2021/04/10 10:01:23;;;;;;;5.82;1.02;;;8.00;90.00;;;;;;5088275;28;20032;-69
2021/04/10 10:03:50;;;;;;;7.10;1.27;;;7.90;89.70;;;;;;5085579;28;20363;-69
2021/04/10 10:06:33;;;;;;;6.22;1.20;;;8.00;87.40;;;;;;5085546;28;20040;-69
2021/04/10 10:08:58;;;;;;;8.25;1.25;;;8.00;90.70;;;;;;5088469;28;20055;-69
2021/04/10 10:11:24;;;;;;;10.13;1.52;;;8.00;90.00;;;;;;5086982;28;20040;-70
2021/04/10 10:13:50;;;;;;;8.27;1.02;;;8.00;89.90;;;;;;5084861;28;20040;-69
2021/04/10 10:16:28;;;;;;;5.68;0.98;;;7.90;87.00;;;;;;5083747;28;20040;-69
2021/04/10 10:18:54;;;;;;;6.70;1.33;;;8.00;89.60;;;;;;5082773;28;20066;-69
2021/04/10 10:21:23;;;;;;;11.75;2.75;;;8.10;90.50;;;;;;5088341;28;20032;-69
2021/04/10 10:23:53;;;;;;;16.52;3.30;;;8.00;88.30;;;;;;5086881;28;20050;-69
2021/04/10 10:26:21;;;;;;;9.75;1.20;;;7.80;87.40;;;;;;5084334;28;20065;-69
2021/04/10 10:28:52;;;;;;;7.45;1.35;;;7.90;89.60;;;;;;5088133;28;20040;-69
2021/04/10 10:31:22;;;;;;;8.23;1.13;;;7.70;89.20;;;;;;5088422;28;20044;-69
2021/04/10 10:33:49;;;;;;;10.27;1.27;;;7.90;90.10;;;;;;5086319;28;20043;-69
2021/04/10 10:36:17;;;;;;;6.30;1.75;;;8.00;90.90;;;;;;5084275;28;20641;-69
2021/04/10 10:38:45;;;;;;;9.43;1.38;;;7.90;90.60;;;;;;5088286;28;20778;-69
2021/04/10 10:41:13;;;;;;;8.95;1.65;;;7.90;90.20;;;;;;5086024;28;20501;-69
2021/04/10 10:43:39;;;;;;;8.38;1.33;;;7.90;86.90;;;;;;5085746;28;20051;-69
2021/04/10 10:46:07;;;;;;;8.23;1.08;;;7.90;88.20;;;;;;5082946;28;20488;-69
2021/04/10 10:48:43;;;;;;;9.27;1.40;;;7.80;86.10;;;;;;5087393;28;20048;-69
2021/04/10 10:51:18;;;;;;;6.95;2.10;;;8.00;89.40;;;;;;5086096;28;20036;-69
2021/04/10 10:53:50;;;;;;;6.27;0.90;;;7.70;87.60;;;;;;5083779;28;20044;-69
2021/04/10 10:56:18;;;;;;;6.18;1.00;;;7.60;87.60;;;;;;5084383;28;20323;-69
2021/04/10 10:58:50;;;;;;;11.55;2.28;;;7.80;90.30;;;;;;5085108;28;20036;-69
2021/04/10 11:01:18;;;;;;;8.25;1.10;;;7.90;90.00;;;;;;5086302;28;20036;-69
2021/04/10 11:03:50;;;;;;;10.60;1.63;;;8.10;90.80;;;;;;5085763;28;20048;-69
2021/04/10 11:06:18;;;;;;;7.53;1.50;;;7.90;87.30;;;;;;5116068;27;20032;-69
2021/04/10 11:08:45;;;;;;;7.55;1.63;;;7.80;89.10;;;;;;5088212;28;20052;-69
2021/04/10 11:11:12;;;;;;;7.43;1.10;;;7.80;89.40;;;;;;5087185;28;21744;-69
2021/04/10 11:13:41;;;;;;;10.57;2.50;;;7.90;90.30;;;;;;5086754;28;20040;-69
2021/04/10 11:16:07;;;;;;;7.07;1.58;;;7.80;89.10;;;;;;5084652;28;20032;-69
2021/04/10 11:18:34;;;;;;;10.75;3.42;;;8.00;89.00;;;;;;5086595;28;20077;-69
2021/04/10 11:21:21;;;;;;;5.68;1.35;;;7.80;87.90;;;;;;5087073;28;20512;-69
2021/04/10 11:24:07;;;;;;;9.35;1.70;;;7.90;90.00;;;;;;5085750;28;20093;-69
2021/04/10 11:26:35;;;;;;;9.40;1.77;;;7.90;89.20;;;;;;5083605;28;20044;-69
2021/04/10 11:29:26;;;;;;;7.43;1.00;;;7.90;90.00;;;;;;5083302;28;20046;-69
2021/04/10 11:32:11;;;;;;;11.88;1.70;;;8.00;89.80;;;;;;5086521;28;20059;-69
2021/04/10 11:34:53;;;;;;;7.53;1.23;;;7.80;89.50;;;;;;5080227;28;20028;-68
2021/04/10 11:37:29;;;;;;;9.55;1.80;;;7.80;89.10;;;;;;5085112;28;20056;-69
2021/04/10 11:39:58;;;;;;;7.43;1.55;;;7.90;90.20;;;;;;5090813;28;20063;-69
2021/04/10 11:42:29;;;;;;;11.98;2.10;;;7.70;88.00;;;;;;5089659;28;20086;-69
2021/04/10 11:44:58;;;;;;;6.40;0.95;;;8.00;89.80;;;;;;5086713;28;20490;-69
2021/04/10 11:47:27;;;;;;;6.50;1.27;;;8.00;89.30;;;;;;5088682;28;20051;-69
2021/04/10 11:49:52;;;;;;;9.05;1.38;;;8.00;91.10;;;;;;5088386;28;20032;-69
2021/04/10 11:52:23;;;;;;;12.25;1.40;;;8.00;89.10;;;;;;5090732;28;20046;-69
2021/04/10 11:55:00;;;;;;;11.93;1.52;;;8.00;90.40;;;;;;5084283;28;20063;-69
2021/04/10 11:57:31;;;;;;;5.00;1.30;;;8.00;87.50;;;;;;5090915;28;20044;-69
2021/04/10 12:00:02;;;;;;;8.10;1.85;;;8.00;90.10;;;;;;5090765;28;20032;-69
2021/04/10 12:02:32;;;;;;;8.13;1.50;;;7.90;87.10;;;;;;5090910;28;20047;-69
2021/04/10 12:05:16;;;;;;;5.47;1.30;;;7.90;90.30;;;;;;5087594;28;20111;-69
2021/04/10 12:08:05;;;;;;;8.38;1.52;;;8.00;88.40;;;;;;5090290;28;20032;-69
2021/04/10 12:10:32;;;;;;;3.78;0.95;;;8.00;89.40;;;;;;5082619;28;20056;-69
2021/04/10 12:12:58;;;;;;;5.03;1.10;;;7.90;88.30;;;;;;5090609;28;20445;-69
2021/04/10 12:15:27;;;;;;;13.93;2.10;;;7.90;86.50;;;;;;5085823;28;20111;-69
2021/04/10 12:17:53;;;;;;;8.23;1.33;;;8.00;90.60;;;;;;5090256;28;20502;-69
2021/04/10 12:20:19;;;;;;;11.52;1.40;;;7.80;86.90;;;;;;5091269;28;20059;-69
2021/04/10 12:22:44;;;;;;;5.97;1.77;;;7.80;90.60;;;;;;5090411;28;20038;-69
2021/04/10 12:25:11;;;;;;;11.20;2.65;;;7.80;89.00;;;;;;5086939;28;20040;-69
2021/04/10 12:27:36;;;;;;;7.28;1.27;;;7.80;89.90;;;;;;5090700;28;20133;-69
2021/04/10 12:30:06;;;;;;;9.95;1.85;;;7.80;89.60;;;;;;5090295;28;20738;-69
2021/04/10 12:32:33;;;;;;;8.20;1.83;;;7.90;90.30;;;;;;5089428;28;20051;-69
2021/04/10 12:34:58;;;;;;;4.47;1.27;;;7.90;89.30;;;;;;5086723;28;20565;-69
2021/04/10 12:37:24;;;;;;;9.98;1.17;;;7.90;90.30;;;;;;5090554;28;20042;-69
2021/04/10 12:39:50;;;;;;;7.97;1.75;;;7.90;87.80;;;;;;5089959;28;20044;-69
2021/04/10 12:42:16;;;;;;;13.88;2.42;;;7.80;88.80;;;;;;5089706;28;20378;-69
2021/04/10 12:44:42;;;;;;;12.57;1.60;;;7.80;85.70;;;;;;5086243;28;20024;-69
2021/04/10 12:47:14;;;;;;;6.47;1.35;;;7.80;88.40;;;;;;5090640;28;20123;-69
2021/04/10 12:49:40;;;;;;;5.90;1.73;;;8.00;89.70;;;;;;5089322;28;20047;-69
2021/04/10 12:52:06;;;;;;;6.22;1.63;;;8.00;87.50;;;;;;5089820;28;20040;-69
2021/04/10 12:54:31;;;;;;;6.28;1.08;;;8.00;89.10;;;;;;5086145;28;20078;-69
2021/04/10 12:56:57;;;;;;;6.78;1.52;;;7.90;87.60;;;;;;5089557;28;20580;-69
2021/04/10 12:59:22;;;;;;;11.15;1.25;;;7.80;86.30;;;;;;5090541;28;20036;-69
2021/04/10 13:01:48;;;;;;;7.78;1.20;;;7.90;85.70;;;;;;5089708;28;20366;-69